Time;durP1;ratioP1;P1;durP2;ratioP2;P2;SDS_P1;SDS_P2;PMS_P1;PMS_P2;Temp;Humidity;BMP_temperature;BMP_pressure;BME280_temperature;BME280_humidity;BME280_pressure;Samples;Min_cycle;Max_cycle;Signal;HPM_P1;HPM_P2
2022/08/31 00:04:44;;;;;;;3.55;0.70;;;;;;;11.06;100.00;101846.22;5029579;28;20804;-84
2022/08/31 00:07:17;;;;;;;1.15;0.65;;;;;;;11.13;100.00;101855.06;5031807;28;20415;-83
2022/08/31 00:09:51;;;;;;;2.33;0.68;;;;;;;11.10;100.00;101844.66;5009807;28;20427;-83
2022/08/31 00:12:25;;;;;;;0.88;0.60;;;;;;;11.11;100.00;101845.47;5007444;28;20424;-82
2022/08/31 00:14:58;;;;;;;1.65;0.73;;;;;;;11.10;100.00;101852.81;5028551;28;20419;-83
2022/08/31 00:17:31;;;;;;;0.90;0.60;;;;;;;10.91;100.00;101830.56;5030498;28;20430;-84
2022/08/31 00:20:05;;;;;;;1.50;0.70;;;;;;;11.02;100.00;101856.00;5012288;28;20497;-83
2022/08/31 00:22:39;;;;;;;2.22;0.80;;;;;;;11.03;100.00;101853.03;5025915;28;20434;-83
2022/08/31 00:25:14;;;;;;;0.85;0.60;;;;;;;10.92;100.00;101859.41;5010426;28;20470;-83
2022/08/31 00:27:47;;;;;;;1.50;0.77;;;;;;;10.79;100.00;101848.91;5027666;28;20423;-83
2022/08/31 00:30:21;;;;;;;0.82;0.70;;;;;;;10.74;100.00;101843.41;5002290;28;20432;-82
2022/08/31 00:32:54;;;;;;;1.10;0.70;;;;;;;10.81;100.00;101842.16;5029256;28;20430;-83
2022/08/31 00:35:28;;;;;;;1.35;0.80;;;;;;;10.84;100.00;101843.50;5012569;28;20435;-83
2022/08/31 00:38:02;;;;;;;1.02;0.60;;;;;;;10.81;100.00;101839.41;5030144;28;20430;-84
2022/08/31 00:40:37;;;;;;;1.63;0.60;;;;;;;10.78;100.00;101841.81;5031476;28;20434;-83
2022/08/31 00:43:11;;;;;;;1.05;0.60;;;;;;;10.79;100.00;101836.13;5026509;28;20419;-83
2022/08/31 00:45:39;;;;;;;1.67;0.50;;;;;;;10.77;100.00;101826.53;5030913;28;20452;-83
2022/08/31 00:48:12;;;;;;;1.08;0.60;;;;;;;10.60;100.00;101835.59;5011977;28;20439;-83
2022/08/31 00:50:45;;;;;;;1.80;0.60;;;;;;;10.62;100.00;101843.50;5006213;28;20431;-83
2022/08/31 00:53:18;;;;;;;1.20;0.70;;;;;;;10.52;100.00;101841.47;5013055;28;20060;-82
2022/08/31 00:55:48;;;;;;;0.88;0.50;;;;;;;10.48;100.00;101834.88;5032712;28;20382;-82
2022/08/31 00:58:22;;;;;;;0.55;0.40;;;;;;;10.52;100.00;101842.31;5032115;28;20041;-83
2022/08/31 01:00:55;;;;;;;0.65;0.40;;;;;;;10.50;100.00;101841.72;5016692;28;20060;-84
2022/08/31 01:03:28;;;;;;;0.77;0.60;;;;;;;10.28;100.00;101838.91;5033390;28;20079;-82
2022/08/31 01:05:56;;;;;;;1.40;0.60;;;;;;;10.27;100.00;101834.53;5034676;28;20489;-82
2022/08/31 01:08:30;;;;;;;0.55;0.50;;;;;;;10.17;100.00;101839.84;5016473;28;20053;-82
2022/08/31 01:11:06;;;;;;;0.57;0.50;;;;;;;9.96;100.00;101827.81;5015998;28;20052;-82
2022/08/31 01:13:40;;;;;;;0.70;0.55;;;;;;;9.87;100.00;101836.41;5033291;28;20386;-82
2022/08/31 01:16:18;;;;;;;5.82;0.80;;;;;;;10.05;100.00;101845.34;5034330;28;20489;-82
2022/08/31 01:18:52;;;;;;;;;;;;;;;10.01;100.00;101842.31;5034663;28;20410;-84
2022/08/31 01:21:31;;;;;;;0.73;0.50;;;;;;;10.01;100.00;101836.88;5016858;28;19925;-83
2022/08/31 01:24:08;;;;;;;0.80;0.70;;;;;;;10.10;100.00;101845.44;5015005;28;20053;-82
2022/08/31 01:26:42;;;;;;;1.92;0.80;;;;;;;10.10;100.00;101831.84;5014860;28;20056;-83
2022/08/31 01:29:15;;;;;;;0.95;0.60;;;;;;;10.13;100.00;101835.97;5016129;28;20045;-82
2022/08/31 01:31:48;;;;;;;1.38;0.77;;;;;;;10.00;100.00;101845.28;5033050;28;20042;-82
2022/08/31 01:34:23;;;;;;;0.95;0.85;;;;;;;10.02;100.00;101846.66;5015879;28;20413;-82
2022/08/31 01:36:51;;;;;;;1.83;0.98;;;;;;;10.11;100.00;101846.25;5034041;28;20057;-82
2022/08/31 01:39:26;;;;;;;0.90;0.70;;;;;;;10.18;100.00;101844.22;5015979;28;20053;-82
2022/08/31 01:41:59;;;;;;;1.95;0.90;;;;;;;10.24;100.00;101847.84;5016001;28;20498;-82
2022/08/31 01:44:32;;;;;;;1.00;0.52;;;;;;;10.17;100.00;101850.72;5037402;28;20041;-82
2022/08/31 01:47:06;;;;;;;0.82;0.70;;;;;;;10.03;100.00;101851.03;5033287;28;20049;-82
2022/08/31 01:49:39;;;;;;;1.30;0.90;;;;;;;9.85;100.00;101849.41;5015918;28;20622;-84
2022/08/31 01:52:12;;;;;;;1.35;0.85;;;;;;;9.76;100.00;101840.00;5032445;28;20053;-83
2022/08/31 01:54:47;;;;;;;1.85;0.90;;;;;;;9.80;100.00;101843.84;5031899;28;20056;-82
2022/08/31 01:57:20;;;;;;;1.83;0.82;;;;;;;9.78;100.00;101851.47;5015515;28;20050;-83
2022/08/31 02:00:23;;;;;;;1.17;0.80;;;;;;;9.91;100.00;101841.34;5032023;28;20053;-83
2022/08/31 02:02:59;;;;;;;4.28;0.70;;;;;;;9.93;100.00;101848.19;5032008;28;20057;-82
2022/08/31 02:05:33;;;;;;;1.27;0.80;;;;;;;9.89;100.00;101849.75;5015640;28;20076;-83
2022/08/31 02:08:08;;;;;;;1.35;0.80;;;;;;;10.00;100.00;101854.28;5031784;28;20060;-84
2022/08/31 02:10:43;;;;;;;2.03;0.90;;;;;;;9.95;100.00;101848.75;5015023;28;20049;-83
2022/08/31 02:13:16;;;;;;;1.17;0.80;;;;;;;10.01;100.00;101844.19;5034269;28;20068;-83
2022/08/31 02:15:49;;;;;;;1.60;0.90;;;;;;;10.03;100.00;101850.22;5033140;28;20041;-83
2022/08/31 02:18:23;;;;;;;0.85;0.70;;;;;;;9.98;100.00;101853.69;5014918;28;20438;-83
2022/08/31 02:20:51;;;;;;;1.27;0.70;;;;;;;9.92;100.00;101843.81;5033176;28;20049;-82
2022/08/31 02:23:24;;;;;;;0.80;0.60;;;;;;;9.87;100.00;101855.44;5009443;28;20050;-82
2022/08/31 02:25:59;;;;;;;3.67;0.90;;;;;;;9.79;100.00;101853.13;5011616;28;20061;-82
2022/08/31 02:28:33;;;;;;;1.48;0.90;;;;;;;9.80;100.00;101856.66;5011365;28;20056;-82
2022/08/31 02:31:06;;;;;;;2.05;0.88;;;;;;;9.87;100.00;101858.16;4995618;28;20050;-82
2022/08/31 02:33:47;;;;;;;2.10;1.02;;;;;;;9.77;100.00;101849.81;5012066;28;20046;-82
2022/08/31 02:36:22;;;;;;;1.92;0.80;;;;;;;9.71;100.00;101845.34;5011602;28;20046;-82
2022/08/31 02:38:51;;;;;;;1.48;0.80;;;;;;;9.71;100.00;101853.50;5000845;28;20046;-82
2022/08/31 02:41:26;;;;;;;0.73;0.60;;;;;;;9.70;100.00;101847.22;5030887;28;20050;-82
2022/08/31 02:43:59;;;;;;;1.50;0.90;;;;;;;9.65;100.00;101841.72;5035396;28;20049;-82
2022/08/31 02:46:32;;;;;;;1.95;0.95;;;;;;;9.63;100.00;101851.19;5039246;28;20049;-82
2022/08/31 02:49:31;;;;;;;1.55;0.75;;;;;;;9.51;100.00;101835.78;5003302;28;20069;-83
2022/08/31 02:52:04;;;;;;;3.00;0.80;;;;;;;9.59;100.00;101848.13;4995374;28;20046;-83
2022/08/31 02:54:37;;;;;;;1.40;0.80;;;;;;;9.57;100.00;101844.84;4999106;28;20045;-82
2022/08/31 02:57:13;;;;;;;0.98;0.77;;;;;;;9.52;100.00;101847.47;5014469;28;20057;-82
2022/08/31 02:59:41;;;;;;;1.67;0.80;;;;;;;9.53;100.00;101847.22;5009650;28;20049;-82
2022/08/31 03:02:14;;;;;;;1.15;0.85;;;;;;;9.50;100.00;101847.72;5028493;28;20060;-83
2022/08/31 03:04:47;;;;;;;1.35;0.73;;;;;;;9.52;100.00;101844.75;5015378;28;20042;-83
2022/08/31 03:07:20;;;;;;;1.60;0.80;;;;;;;9.25;100.00;101801.03;5030895;28;20060;-83
2022/08/31 03:09:54;;;;;;;1.25;0.77;;;;;;;9.49;100.00;101828.94;5031007;28;20061;-83
2022/08/31 03:12:28;;;;;;;2.05;1.17;;;;;;;9.48;100.00;101830.00;5018716;28;20045;-83
2022/08/31 03:15:02;;;;;;;1.30;0.80;;;;;;;9.49;100.00;101831.66;5019100;28;20054;-82
2022/08/31 03:17:35;;;;;;;3.10;1.10;;;;;;;9.48;100.00;101836.25;4998650;28;20046;-83
2022/08/31 03:20:14;;;;;;;1.42;0.90;;;;;;;9.47;100.00;101831.06;5013124;28;20049;-83
2022/08/31 03:22:49;;;;;;;0.95;0.80;;;;;;;9.42;100.00;101828.25;5035062;28;20502;-82
2022/08/31 03:25:23;;;;;;;1.52;1.02;;;;;;;9.44;100.00;101826.13;5018101;28;20049;-82
2022/08/31 03:27:57;;;;;;;1.10;0.80;;;;;;;9.45;100.00;101835.94;5036201;28;20045;-82
2022/08/31 03:30:33;;;;;;;1.27;1.08;;;;;;;9.44;100.00;101829.66;5034654;28;20052;-82
2022/08/31 03:33:06;;;;;;;1.20;0.80;;;;;;;9.45;100.00;101828.59;5035160;28;20050;-82
2022/08/31 03:35:43;;;;;;;2.47;1.00;;;;;;;9.42;100.00;101834.50;5035015;28;20128;-83
2022/08/31 03:38:16;;;;;;;3.28;1.05;;;;;;;9.39;100.00;101834.16;5018190;28;20387;-82
2022/08/31 03:40:44;;;;;;;4.75;1.20;;;;;;;9.41;100.00;101842.91;5018146;28;20046;-83
2022/08/31 03:43:14;;;;;;;2.10;1.23;;;;;;;9.32;100.00;101826.16;5034972;28;20054;-82
2022/08/31 03:45:48;;;;;;;1.67;0.95;;;;;;;9.41;100.00;101853.78;5034667;28;20049;-82
2022/08/31 03:48:17;;;;;;;2.17;0.93;;;;;;;9.34;100.00;101845.78;5034590;28;20054;-83
2022/08/31 03:50:50;;;;;;;2.15;1.00;;;;;;;9.36;100.00;101847.19;5034547;28;20049;-82
2022/08/31 03:53:27;;;;;;;2.80;1.25;;;;;;;9.41;100.00;101846.44;5033929;28;20417;-83
2022/08/31 03:56:02;;;;;;;2.25;1.00;;;;;;;9.47;100.00;101852.78;5034644;28;20053;-83
2022/08/31 03:58:42;;;;;;;3.75;1.10;;;;;;;9.51;100.00;101848.53;5017550;28;20057;-83
2022/08/31 04:01:36;;;;;;;1.55;1.00;;;;;;;9.57;100.00;101858.44;5036080;28;20052;-82
2022/08/31 04:04:28;;;;;;;1.85;1.00;;;;;;;9.61;100.00;101856.03;5037147;28;20060;-82
2022/08/31 04:07:36;;;;;;;1.95;1.20;;;;;;;9.68;100.00;101857.53;5035477;28;20060;-82
2022/08/31 04:10:27;;;;;;;1.77;1.00;;;;;;;9.76;100.00;101859.00;5042472;28;20072;-82
2022/08/31 04:13:34;;;;;;;2.10;1.00;;;;;;;9.84;100.00;101857.81;5035661;28;20052;-82
2022/08/31 04:16:27;;;;;;;1.98;0.98;;;;;;;9.87;100.00;101860.03;5042648;28;20653;-83
2022/08/31 04:19:23;;;;;;;2.17;1.13;;;;;;;9.83;100.00;101856.16;5025711;28;20076;-84
2022/08/31 04:22:16;;;;;;;1.50;1.00;;;;;;;9.67;100.00;101825.16;4997055;28;20053;-82
2022/08/31 04:25:09;;;;;;;2.17;0.95;;;;;;;9.76;100.00;101828.31;5022002;28;20602;-83
2022/08/31 04:27:38;;;;;;;2.15;1.25;;;;;;;9.80;100.00;101843.06;5026567;28;20056;-82
2022/08/31 04:30:12;;;;;;;1.48;0.98;;;;;;;9.94;100.00;101865.31;5009169;28;20061;-82
2022/08/31 04:32:46;;;;;;;2.60;1.30;;;;;;;9.96;100.00;101869.44;4997376;28;20049;-81
2022/08/31 04:35:20;;;;;;;0.85;0.77;;;;;;;9.75;100.00;101864.69;4997876;28;20056;-83
2022/08/31 04:37:48;;;;;;;2.75;1.10;;;;;;;9.77;100.00;101866.09;5013775;28;20060;-84
2022/08/31 04:40:18;;;;;;;1.63;1.00;;;;;;;9.67;100.00;101869.47;4999950;28;20053;-81
2022/08/31 04:42:52;;;;;;;1.67;1.00;;;;;;;9.65;100.00;101877.06;5035218;28;20049;-82
2022/08/31 04:45:28;;;;;;;2.50;1.10;;;;;;;9.66;100.00;101870.53;5016834;28;20071;-82
2022/08/31 04:48:03;;;;;;;1.05;0.88;;;;;;;9.68;100.00;101870.28;5033097;28;20053;-82
2022/08/31 04:50:39;;;;;;;1.20;0.90;;;;;;;9.74;100.00;101873.94;5017116;28;20072;-81
2022/08/31 04:53:12;;;;;;;2.20;1.10;;;;;;;9.75;100.00;101881.00;5038888;28;20163;-82
2022/08/31 04:55:40;;;;;;;1.88;1.10;;;;;;;9.80;100.00;101865.59;5012329;28;20482;-83
2022/08/31 04:58:11;;;;;;;2.10;0.90;;;;;;;9.86;100.00;101880.16;5016486;28;20069;-81
2022/08/31 05:00:44;;;;;;;3.63;1.05;;;;;;;9.98;100.00;101874.63;5017546;28;20072;-82
2022/08/31 05:03:38;;;;;;;2.28;1.30;;;;;;;10.15;100.00;101858.28;5038272;28;20052;-81
2022/08/31 05:06:13;;;;;;;2.22;1.15;;;;;;;10.51;100.00;101870.59;5013902;28;20068;-83
2022/08/31 05:08:46;;;;;;;2.15;1.30;;;;;;;10.93;100.00;101871.97;5029602;28;20041;-85
2022/08/31 05:11:18;;;;;;;10.02;1.30;;;;;;;11.67;100.00;101873.34;5025349;28;20060;-83
2022/08/31 05:13:51;;;;;;;1.55;1.00;;;;;;;12.28;100.00;101879.59;5029139;28;20053;-83
2022/08/31 05:16:24;;;;;;;1.20;1.00;;;;;;;12.04;100.00;101877.22;5006926;28;20416;-84
2022/08/31 05:19:01;;;;;;;3.25;1.15;;;;;;;11.83;100.00;101877.00;5029807;28;20052;-82
2022/08/31 05:21:35;;;;;;;1.65;1.08;;;;;;;11.50;100.00;101873.44;5011139;28;20049;-82
2022/08/31 05:24:12;;;;;;;3.05;1.05;;;;;;;11.54;100.00;101873.75;5032595;28;20058;-83
2022/08/31 05:26:48;;;;;;;1.27;0.95;;;;;;;11.49;100.00;101869.06;5015149;28;20402;-83
2022/08/31 05:29:24;;;;;;;1.92;1.20;;;;;;;11.49;100.00;101871.81;5032290;28;20706;-82
2022/08/31 05:32:07;;;;;;;1.88;1.25;;;;;;;11.55;100.00;101864.50;5015934;28;20525;-84
2022/08/31 05:34:42;;;;;;;2.22;1.10;;;;;;;11.62;100.00;101873.28;5033665;28;20038;-82
2022/08/31 05:37:10;;;;;;;5.32;1.25;;;;;;;11.64;100.00;101862.94;5015439;28;20068;-83
2022/08/31 05:39:43;;;;;;;1.67;1.17;;;;;;;11.82;100.00;101880.84;5032950;28;20076;-84
2022/08/31 05:42:18;;;;;;;2.65;1.45;;;;;;;11.91;100.00;101878.47;5031505;28;20057;-83
2022/08/31 05:44:51;;;;;;;2.33;1.30;;;;;;;11.95;100.00;101882.34;5015598;28;20068;-83
2022/08/31 05:47:20;;;;;;;2.55;1.30;;;;;;;11.99;100.00;101893.56;5015680;28;20056;-83
2022/08/31 05:49:56;;;;;;;2.90;1.30;;;;;;;12.10;100.00;101887.13;5015309;28;20049;-83
2022/08/31 05:52:25;;;;;;;2.78;1.58;;;;;;;12.03;100.00;101870.16;5030690;28;20049;-84
2022/08/31 05:54:58;;;;;;;2.22;1.10;;;;;;;12.18;100.00;101899.44;5031392;28;20049;-83
2022/08/31 05:57:32;;;;;;;2.42;1.10;;;;;;;12.14;100.00;101890.97;5030308;28;20041;-82
2022/08/31 06:00:08;;;;;;;2.10;1.10;;;;;;;12.32;100.00;101897.94;5033319;28;20045;-84
2022/08/31 06:02:43;;;;;;;1.80;1.00;;;;;;;12.45;100.00;101899.38;5014812;28;20068;-84
2022/08/31 06:05:15;;;;;;;8.35;1.20;;;;;;;12.57;100.00;101897.28;5013540;28;20053;-84
2022/08/31 06:07:49;;;;;;;0.88;0.80;;;;;;;12.49;100.00;101897.75;5017077;28;20045;-84
2022/08/31 06:10:24;;;;;;;1.75;1.00;;;;;;;12.68;100.00;101900.91;5011298;28;20451;-81
2022/08/31 06:12:52;;;;;;;0.98;0.80;;;;;;;12.84;100.00;101898.25;5038028;28;20052;-83
2022/08/31 06:15:25;;;;;;;2.47;1.20;;;;;;;12.52;100.00;101882.78;5030301;28;20508;-84
2022/08/31 06:17:57;;;;;;;1.83;1.17;;;;;;;12.68;100.00;101876.31;5031680;28;20052;-84
2022/08/31 06:20:33;;;;;;;2.20;0.95;;;;;;;13.00;100.00;101913.63;5016755;28;20409;-86
2022/08/31 06:23:08;;;;;;;2.10;1.02;;;;;;;12.79;100.00;101912.72;5014447;28;20799;-85
2022/08/31 06:25:48;;;;;;;1.23;0.90;;;;;;;12.79;100.00;101911.88;5031054;28;20417;-84
2022/08/31 06:28:16;;;;;;;4.13;1.13;;;;;;;12.89;100.00;101918.22;5031003;28;20501;-82
2022/08/31 06:30:52;;;;;;;1.20;0.95;;;;;;;12.84;100.00;101925.56;5009238;28;20056;-83
2022/08/31 06:33:20;;;;;;;2.17;1.15;;;;;;;12.85;100.00;101913.56;5029530;28;20060;-82
2022/08/31 06:36:02;;;;;;;2.95;1.08;;;;;;;13.03;100.00;101915.00;5030298;28;20049;-83
2022/08/31 06:38:52;;;;;;;1.38;0.93;;;;;;;13.28;100.00;101927.97;5027163;28;20065;-84
2022/08/31 06:41:47;;;;;;;2.00;0.90;;;;;;;13.49;100.00;101922.59;5020012;28;20046;-86
2022/08/31 06:44:54;;;;;;;2.42;1.00;;;;;;;13.55;100.00;101913.31;5019574;28;20053;-85
2022/08/31 06:47:49;;;;;;;4.25;1.10;;;;;;;13.71;100.00;101905.97;5017998;28;20056;-86
2022/08/31 06:50:22;;;;;;;1.58;1.02;;;;;;;13.84;100.00;101910.91;5021937;28;21430;-86
2022/08/31 06:52:57;;;;;;;4.45;1.00;;;;;;;14.00;100.00;101925.41;5017593;28;20061;-86
2022/08/31 06:55:57;;;;;;;3.20;1.00;;;;;;;14.19;100.00;101922.97;5004413;28;20061;-85
2022/08/31 06:58:53;;;;;;;1.50;1.07;;;;;;;14.34;100.00;101922.16;5011533;28;20058;-84
2022/08/31 07:01:45;;;;;;;1.50;1.00;;;;;;;14.51;100.00;101913.63;5016012;28;20065;-88
2022/08/31 07:04:32;;;;;;;1.20;0.93;;;;;;;14.52;100.00;101903.50;5013405;28;20402;-86
2022/08/31 07:07:07;;;;;;;0.75;0.75;;;;;;;14.72;100.00;101910.88;5013449;28;20053;-82
2022/08/31 07:09:38;;;;;;;2.78;0.80;;;;;;;14.67;100.00;101913.66;5009235;28;20049;-81
2022/08/31 07:12:11;;;;;;;1.58;1.00;;;;;;;14.82;100.00;101910.88;4997063;28;20561;-84
2022/08/31 07:14:45;;;;;;;1.80;1.00;;;;;;;14.97;100.00;101915.50;5017710;28;20076;-82
2022/08/31 07:17:18;;;;;;;0.70;0.57;;;;;;;15.03;100.00;101913.56;5000771;28;20056;-87
2022/08/31 07:19:47;;;;;;;1.65;0.70;;;;;;;15.17;100.00;101911.84;5016868;28;20041;-86
2022/08/31 07:22:16;;;;;;;4.30;0.82;;;;;;;15.02;100.00;101907.22;5019468;28;20065;-85
2022/08/31 07:24:56;;;;;;;2.42;0.80;;;;;;;15.35;100.00;101915.06;5004425;28;20401;-84
2022/08/31 07:27:24;;;;;;;1.88;0.90;;;;;;;15.42;100.00;101907.34;5006953;28;20053;-87
2022/08/31 07:29:59;;;;;;;2.85;1.00;;;;;;;15.34;100.00;101916.16;5007150;28;20683;-85
2022/08/31 07:32:32;;;;;;;1.77;0.88;;;;;;;15.48;100.00;101915.25;4995581;28;20687;-83
2022/08/31 07:35:01;;;;;;;1.33;0.70;;;;;;;15.67;100.00;101913.78;4996221;28;20064;-87
2022/08/31 07:43:32;;;;;;;0.70;0.45;;;;;;;15.86;100.00;101912.03;4995966;28;20068;-86
2022/08/31 07:46:05;;;;;;;0.73;0.55;;;;;;;16.08;100.00;101913.50;4983627;28;20518;-83
2022/08/31 07:48:38;;;;;;;1.10;0.60;;;;;;;16.13;100.00;101908.00;4983739;28;20053;-81
2022/08/31 07:51:42;;;;;;;1.83;0.70;;;;;;;16.28;100.00;101910.59;4983547;28;20065;-81
2022/08/31 07:54:26;;;;;;;0.75;0.60;;;;;;;16.39;100.00;101903.09;5002017;28;20057;-84
2022/08/31 07:57:06;;;;;;;2.90;0.60;;;;;;;16.47;100.00;101910.69;4996183;28;20057;-86
2022/08/31 07:59:38;;;;;;;0.75;0.50;;;;;;;16.39;100.00;101903.09;5003174;28;20060;-85
2022/08/31 08:02:07;;;;;;;0.50;0.50;;;;;;;16.49;100.00;101902.16;5018634;28;20049;-82
2022/08/31 08:04:41;;;;;;;7.00;0.70;;;;;;;16.54;100.00;101912.28;5004094;28;20063;-83
2022/08/31 08:07:32;;;;;;;0.95;0.55;;;;;;;16.62;100.00;101915.19;5033233;28;20500;-85
2022/08/31 08:10:13;;;;;;;1.55;0.63;;;;;;;16.57;100.00;101912.53;5028057;28;20497;-84
2022/08/31 08:13:05;;;;;;;0.90;0.68;;;;;;;16.69;100.00;101914.06;5003363;28;20057;-86
2022/08/31 08:15:49;;;;;;;3.15;0.70;;;;;;;16.71;100.00;101923.66;5021094;28;20087;-85
2022/08/31 08:18:55;;;;;;;1.02;0.65;;;;;;;16.92;100.00;101928.97;5011198;28;20057;-82
2022/08/31 08:21:29;;;;;;;2.70;0.70;;;;;;;17.13;100.00;101922.09;4987449;28;20461;-86
2022/08/31 08:24:03;;;;;;;1.73;0.60;;;;;;;17.06;100.00;101929.88;4992536;28;20439;-85
2022/08/31 08:26:52;;;;;;;1.70;0.50;;;;;;;16.83;100.00;101931.47;5016121;28;20474;-83
2022/08/31 08:29:55;;;;;;;2.10;0.90;;;;;;;16.65;100.00;101931.13;4998807;28;20946;-82
2022/08/31 08:32:30;;;;;;;2.03;0.80;;;;;;;16.74;100.00;101931.31;4988363;28;20798;-82
2022/08/31 08:34:58;;;;;;;5.75;2.97;;;;;;;16.98;100.00;101922.28;4989629;28;20432;-85
2022/08/31 08:37:32;;;;;;;2.30;1.10;;;;;;;17.13;100.00;101927.59;4983736;28;20423;-84
2022/08/31 08:40:09;;;;;;;1.52;0.50;;;;;;;17.13;100.00;101927.59;4998275;28;20425;-84
2022/08/31 08:42:43;;;;;;;1.88;0.65;;;;;;;17.21;100.00;101928.03;4994182;28;20446;-84
2022/08/31 08:45:18;;;;;;;0.95;0.70;;;;;;;17.16;100.00;101927.00;5008523;28;20436;-84
2022/08/31 08:47:55;;;;;;;1.60;0.90;;;;;;;17.33;100.00;101912.75;5009550;28;20431;-86
2022/08/31 08:50:26;;;;;;;1.90;0.85;;;;;;;17.35;100.00;101931.72;4982404;28;20427;-81
2022/08/31 08:53:00;;;;;;;0.90;0.60;;;;;;;17.40;100.00;101925.31;4982371;28;20435;-83
2022/08/31 08:55:38;;;;;;;2.40;1.13;;;;;;;17.39;100.00;101921.75;4986724;28;20427;-85
2022/08/31 08:58:12;;;;;;;1.95;0.70;;;;;;;17.40;100.00;101925.31;4980423;28;20435;-84
2022/08/31 09:00:52;;;;;;;1.73;0.85;;;;;;;17.54;100.00;101926.25;5004470;28;21081;-85
2022/08/31 09:03:40;;;;;;;1.40;0.60;;;;;;;17.55;100.00;101927.84;4986142;28;20544;-86
2022/08/31 09:06:35;;;;;;;0.87;0.70;;;;;;;17.30;100.00;101935.38;5006763;28;20423;-87
2022/08/31 09:09:33;;;;;;;1.23;0.60;;;;;;;17.30;100.00;101929.88;5004254;28;20414;-85
2022/08/31 09:12:17;;;;;;;2.90;0.60;;;;;;;17.43;100.00;101922.00;4986666;28;20431;-88
2022/08/31 09:15:14;;;;;;;1.03;0.60;;;;;;;17.76;100.00;101917.38;4985413;28;21291;-81
2022/08/31 09:18:00;;;;;;;2.43;0.80;;;;;;;17.87;100.00;101907.03;5000129;28;20425;-84
2022/08/31 09:20:33;;;;;;;2.58;1.00;;;;;;;18.31;100.00;101919.56;5005380;28;20421;-87
2022/08/31 09:23:07;;;;;;;1.85;0.70;;;;;;;18.04;100.00;101919.47;5004810;28;20429;-84
2022/08/31 09:25:51;;;;;;;0.87;0.60;;;;;;;18.13;100.00;101914.91;5016214;28;20464;-84
2022/08/31 09:28:47;;;;;;;1.80;0.60;;;;;;;18.13;100.00;101917.66;4983705;28;20421;-83
2022/08/31 09:31:36;;;;;;;0.55;0.50;;;;;;;18.13;100.00;101906.63;4983219;28;20733;-82
2022/08/31 09:34:13;;;;;;;1.10;0.60;;;;;;;18.22;100.00;101918.63;5001652;28;20898;-85
2022/08/31 09:36:46;;;;;;;1.90;0.60;;;;;;;18.10;100.00;101912.75;4987489;28;20437;-83
2022/08/31 09:39:23;;;;;;;1.55;0.80;;;;;;;18.15;100.00;101916.25;5001823;28;20429;-83
2022/08/31 09:42:02;;;;;;;2.60;0.82;;;;;;;18.29;100.00;101912.72;5019210;28;20980;-86
2022/08/31 09:44:41;;;;;;;2.60;0.70;;;;;;;18.49;100.00;101917.88;4990001;28;20429;-82
2022/08/31 09:47:39;;;;;;;1.08;0.70;;;;;;;18.34;100.00;101915.38;4997682;28;20429;-83
2022/08/31 09:50:25;;;;;;;1.25;0.63;;;;;;;18.14;100.00;101909.09;4979984;28;20429;-86
2022/08/31 09:56:15;;;;;;;1.08;0.60;;;;;;;18.33;97.12;101908.25;5000379;28;20445;-84
2022/08/31 09:58:51;;;;;;;1.73;0.70;;;;;;;18.49;98.88;101901.34;5003570;28;21442;-85
2022/08/31 10:01:25;;;;;;;1.60;0.50;;;;;;;18.34;100.00;101898.84;4980315;28;20439;-87
2022/08/31 10:04:11;;;;;;;1.02;0.65;;;;;;;18.58;94.68;101904.19;5000012;28;20437;-85
2022/08/31 10:06:54;;;;;;;2.78;0.70;;;;;;;18.40;100.00;101902.34;5002943;28;20441;-85
2022/08/31 10:09:31;;;;;;;1.73;1.10;;;;;;;18.48;100.00;101910.72;4999232;28;20440;-85
2022/08/31 10:12:09;;;;;;;14.60;9.52;;;;;;;18.57;98.25;101904.50;5017527;28;20427;-86
2022/08/31 10:14:50;;;;;;;2.20;0.70;;;;;;;18.48;97.64;101894.19;5020001;28;20429;-86
2022/08/31 10:17:25;;;;;;;3.17;0.70;;;;;;;18.50;100.00;101897.44;5018494;28;20414;-83
2022/08/31 10:20:00;;;;;;;1.63;0.67;;;;;;;18.82;100.00;101904.03;5017901;28;20435;-83
2022/08/31 10:22:40;;;;;;;1.00;0.60;;;;;;;18.83;96.77;101893.78;4982914;28;20440;-86
2022/08/31 10:25:23;;;;;;;0.95;0.60;;;;;;;18.85;98.53;101900.63;5015040;28;20430;-85
2022/08/31 10:28:05;;;;;;;1.00;0.70;;;;;;;18.89;97.68;101903.63;5013133;28;20457;-85
2022/08/31 10:30:45;;;;;;;1.37;0.60;;;;;;;19.14;96.43;101887.66;5007493;28;20477;-84
2022/08/31 10:33:23;;;;;;;1.13;0.70;;;;;;;19.13;89.43;101897.09;4994766;28;20436;-84
2022/08/31 10:36:00;;;;;;;0.80;0.70;;;;;;;18.98;92.22;101893.50;5012895;28;20694;-81
2022/08/31 10:38:35;;;;;;;1.65;0.60;;;;;;;18.62;100.00;101891.44;5013411;28;20426;-82
2022/08/31 10:41:13;;;;;;;1.40;0.70;;;;;;;18.66;96.45;101902.69;5005528;28;20422;-84
2022/08/31 10:43:47;;;;;;;1.10;0.63;;;;;;;18.74;100.00;101904.72;4987669;28;20430;-84
2022/08/31 10:46:20;;;;;;;1.35;0.73;;;;;;;18.75;98.91;101881.53;5002713;28;20532;-82
2022/08/31 10:48:56;;;;;;;2.63;0.70;;;;;;;19.16;96.90;101890.94;4987472;28;21380;-84
2022/08/31 10:51:37;;;;;;;1.60;0.75;;;;;;;19.22;98.18;101892.44;4999896;28;20763;-84
2022/08/31 10:54:27;;;;;;;0.80;0.60;;;;;;;18.97;100.00;101885.53;4979054;28;20495;-85
2022/08/31 10:57:10;;;;;;;1.00;0.68;;;;;;;18.96;95.49;101887.50;5000749;28;20425;-87
2022/08/31 10:59:52;;;;;;;2.37;0.73;;;;;;;18.98;96.05;101889.94;4973668;28;21016;-84
2022/08/31 11:02:42;;;;;;;1.17;0.70;;;;;;;18.97;100.00;101888.31;5006629;28;20428;-86
2022/08/31 11:05:29;;;;;;;1.80;0.50;;;;;;;18.88;100.00;101885.44;4993428;28;20426;-82
2022/08/31 11:08:17;;;;;;;5.75;0.85;;;;;;;18.62;100.00;101877.66;4982562;28;20436;-87
2022/08/31 11:10:53;;;;;;;1.63;0.70;;;;;;;18.55;100.00;101876.41;4988329;28;20431;-86
2022/08/31 11:13:59;;;;;;;1.90;0.60;;;;;;;18.44;100.00;101878.56;4981526;28;20434;-86
2022/08/31 11:16:44;;;;;;;1.60;0.60;;;;;;;18.69;99.51;101866.22;4988959;28;20427;-86
2022/08/31 11:19:39;;;;;;;1.42;0.63;;;;;;;19.02;97.64;101858.66;4986398;28;20869;-84
2022/08/31 11:22:33;;;;;;;1.70;0.80;;;;;;;19.64;96.33;101862.81;4992115;28;20803;-85
2022/08/31 11:25:23;;;;;;;1.90;1.00;;;;;;;19.95;95.28;101853.78;4989055;28;20438;-87
2022/08/31 11:28:05;;;;;;;5.35;1.05;;;;;;;20.28;88.94;101869.25;4989272;28;20444;-80
2022/08/31 11:30:45;;;;;;;1.48;0.90;;;;;;;20.43;91.07;101860.53;5014391;28;20434;-82
2022/08/31 11:33:26;;;;;;;1.60;0.87;;;;;;;20.27;93.45;101860.13;5023028;28;20422;-84
2022/08/31 11:36:05;;;;;;;1.40;0.60;;;;;;;20.12;74.26;101861.38;5005094;28;20427;-82
2022/08/31 11:38:47;;;;;;;1.42;0.70;;;;;;;19.83;83.95;101861.81;5006239;28;20427;-81
2022/08/31 11:41:37;;;;;;;1.30;0.60;;;;;;;19.94;89.09;101859.63;5003768;28;20419;-83
2022/08/31 11:44:09;;;;;;;4.23;0.70;;;;;;;20.01;85.68;101862.75;5023908;28;20444;-85
2022/08/31 11:46:59;;;;;;;2.87;0.70;;;;;;;20.10;84.21;101855.34;5023321;28;20415;-81
2022/08/31 11:49:42;;;;;;;0.70;0.50;;;;;;;20.02;86.02;101845.88;5002890;28;20425;-81
2022/08/31 11:52:33;;;;;;;5.22;0.55;;;;;;;19.87;85.93;101849.84;5020425;28;20432;-84
2022/08/31 11:55:20;;;;;;;1.40;0.70;;;;;;;19.70;90.80;101849.69;5007502;28;20946;-88
2022/08/31 11:58:15;;;;;;;0.50;0.50;;;;;;;19.36;88.19;101846.34;5006533;28;20433;-86
2022/08/31 12:00:48;;;;;;;1.08;0.60;;;;;;;19.21;90.01;101832.88;5000645;28;20440;-87
2022/08/31 12:03:44;;;;;;;1.80;0.68;;;;;;;19.59;80.97;101840.81;5023329;28;20555;-80
2022/08/31 12:07:06;;;;;;;4.13;0.70;;;;;;;19.61;84.95;101837.75;5021952;28;20794;-86
2022/08/31 12:10:15;;;;;;;1.30;0.65;;;;;;;19.47;76.34;101833.13;5022303;28;20430;-80
2022/08/31 12:13:17;;;;;;;11.20;5.60;;;;;;;19.32;82.99;101825.16;5008731;28;21263;-81
2022/08/31 12:16:08;;;;;;;3.72;1.30;;;;;;;19.48;94.89;101828.41;5022021;28;20437;-84
2022/08/31 12:25:11;;;;;;;1.07;0.67;;;;;;;20.43;80.75;101818.28;5026238;28;20534;-85
2022/08/31 12:27:58;;;;;;;3.40;0.80;;;;;;;20.44;68.56;101817.13;5004553;28;20472;-80
2022/08/31 12:30:31;;;;;;;1.67;0.73;;;;;;;20.04;65.41;101824.25;5018253;28;20426;-83
2022/08/31 12:33:11;;;;;;;1.13;0.70;;;;;;;19.76;67.53;101814.47;5017947;28;20438;-84